AirNav   Advertisement
 
 1476 users online  

43PA Kolb Airport
Spring City, Pennsylvania, USA

GOING TO SPRING CITY?


FAA INFORMATION EFFECTIVE 20 JULY 2017

Location

FAA Identifier: 43PA
Lat/Long: 40-09-35.9900N / 075-32-44.4150W
40-09.599833N / 075-32.740250W
40.1599972 / -75.5456708
(estimated)
Elevation: 290 ft. / 88 m (estimated)
Variation: 11W (1985)
From city: 2 miles S of SPRING CITY, PA
Time zone: UTC -4 (UTC -5 during Standard Time)
Zip code: 19475

Airport Operations

Airport use: Private use. Permission required prior to landing
Activation date: 01/1974
Control tower: no
ARTCC: NEW YORK CENTER
FSS: WILLIAMSPORT FLIGHT SERVICE STATION
Attendance: 1200-DARK
Wind indicator: yes
Segmented circle: no

Airport Communications

WX ASOS at PTW (5 nm N): 119.425 (610-495-0823)
WX AWOS-3 at OQN (10 nm S): 121.4 (610-692-6190)
WX AWOS-3 at LOM (13 nm E): 118.925 (215-646-1068)
WX AWOS-3 at CKZ (18 nm NE): 126.325 (215-257-7291)
WX AWOS-3 at UKT (18 nm NE): 119.475 (215-538-7610)
WX AWOS-3 at MQS (18 nm SW): 126.25 (610-384-6132)

Nearby radio navigation aids

VOR radial/distance  VOR name  Freq  Var
PTWr179/3.8POTTSTOWN VORTAC116.5009W
MXEr031/15.6MODENA VORTAC113.2009W
PNEr291/(25.0)NORTH PHILADELPHIA VOR112.0010W
ETXr175/26.0EAST TEXAS VOR/DME110.2009W
DQOr016/29.0DUPONT VORTAC114.0010W
ARDr269/29.8YARDLEY VOR/DME108.2010W
OODr350/33.4WOODSTOWN VORTAC112.8010W
FJCr197/34.3ALLENTOWN VORTAC117.5010W
LRPr095/34.3LANCASTER VOR/DME117.3009W

 
NDB name  Hdg/Dist  Freq  Var  ID
AMBLER292/12.127512WING .. -. --.

Airport Services

Airframe service: NONE
Powerplant service: NONE

Runway Information

Runway 9/27

Dimensions: 2683 x 100 ft. / 818 x 30 m
Surface: turf
RUNWAY 9  RUNWAY 27
Latitude: 40-09.644333N40-09.555333N
Longitude: 075-33.022333W075-32.458167W
Elevation: 287.0 ft.219.0 ft.
Traffic pattern: leftleft

Airport Ownership and Management from official FAA records

Ownership: Privately-owned
Owner: MARCUS KOLB-JOHN F. STEIMER
580 WALL ST
PHOENIXVILLE, PA 19460
Phone (610) 792-0736
Manager: MARCUS KOLB
580 WALL ST
PHOENIXVILLE, PA 19460
Phone (610) 792-0736

Airport Operational Statistics

Aircraft based on the field: 11
Single engine airplanes: 5
Helicopters: 3
Ultralights: 3
    

Instrument Procedures

There are no published instrument procedures at 43PA.

Some nearby airports with instrument procedures:

KPTW - Heritage Field Airport (5 nm N)
N10 - Perkiomen Valley Airport (6 nm NE)
N47 - Pottstown Municipal Airport (8 nm NW)
KOQN - Brandywine Airport (10 nm S)
KLOM - Wings Field Airport (13 nm E)
KCKZ - Pennridge Airport (18 nm NE)
KUKT - Quakertown Airport (18 nm NE)
KMQS - Chester County G O Carlson Airport (18 nm SW)
 
Loc | Ops | Rwys | IFR | FBO | Links
Com | Nav | Svcs | Stats | Notes


 
Area around 43PA (Kolb Airport)
 
Road maps at: MapQuest Bing Google
 
Aerial photo
No photo
 
Sectional chart

 
Airport distance calculator
Flying to Kolb Airport? Find the distance to fly.

From to 43PA

Sunrise and sunset
Times for 21-Jul-2017
 Local
(UTC-4)
 Zulu
(UTC)
Morning civil twilight05:2009:20
Sunrise05:5109:51
Sunset20:2600:26
Evening civil twilight20:5700:57

Current date and time
Zulu (UTC)  21-Jul-2017 17:57:21
Local (UTC-4)  21-Jul-2017 13:57:21
 
METAR
KPTW 
4nm N 
211654Z AUTO 32004KT 9SM FEW042 FEW090 30/21 A2996 RMK AO2 SLP139 T03000206
KLOM 
13nm E 
211735Z AUTO 35003KT 10SM SCT090 30/21 A2994 RMK AO1
KCKZ 
18nm NE 
211735Z AUTO 32006KT 10SM CLR 30/20 A2995 RMK AO2
KUKT 
18nm NE 
211735Z AUTO 31005KT 10SM CLR 31/20 A2995 RMK AO1
KMQS 
18nm SW 
211735Z AUTO 26004KT 10SM SCT037 SCT042 SCT047 30/21 A2998 RMK AO2
TAF
KPHL 
23nm SE 
211500Z 2115/2218 31006KT P6SM SCT080 FM211600 28009KT P6SM SCT070 FM220200 25005KT P6SM SCT150 FM220600 VRB05KT P6SM SCT150 FM221500 13006KT P6SM BKN150
NOTAMs
Click for the latest NOTAMs
NOTAMs are issued by the DoD/FAA and will open in a separate window not controlled by AirNav.

 

 
 

Would you like to see your business listed on this page?

 If your business provides an interesting product or service to pilots, flight crews, aircraft, or users of the Kolb Airport, you should consider listing it here.  To start the listing process, click on the button below
 
Add a business
 

Other Pages about Kolb Airport

Update a link
 
Copyright © AirNav, LLC. All rights reserved. Privacy Policy  Contact